createdAt,value
2022-10-18T00:00:41.493Z,15.23
2022-10-18T00:03:07.815Z,15.00
2022-10-18T00:05:34.135Z,15.23
2022-10-18T00:08:00.472Z,14.70
2022-10-18T00:10:27.099Z,15.20
2022-10-18T00:12:53.458Z,14.55
2022-10-18T00:15:20.091Z,13.55
2022-10-18T00:17:46.412Z,15.02
2022-10-18T00:20:12.667Z,13.65
2022-10-18T00:22:39.596Z,13.70
2022-10-18T00:25:06.376Z,13.73
2022-10-18T00:27:32.879Z,13.88
2022-10-18T00:29:59.495Z,13.93
2022-10-18T00:32:26.338Z,14.27
2022-10-18T00:34:52.813Z,14.05
2022-10-18T00:37:19.113Z,13.75
2022-10-18T00:39:45.570Z,13.93
2022-10-18T00:42:16.086Z,13.48
2022-10-18T00:44:42.393Z,14.10
2022-10-18T00:47:09.847Z,14.63
2022-10-18T00:49:47.561Z,14.48
2022-10-18T00:52:18.082Z,15.80
2022-10-18T00:54:45.033Z,15.02
2022-10-18T00:57:11.859Z,14.77
2022-10-18T00:59:38.304Z,13.63
2022-10-18T01:02:05.854Z,14.90
2022-10-18T01:04:32.180Z,13.85
2022-10-18T01:07:04.556Z,13.88
2022-10-18T01:09:33.732Z,13.25
2022-10-18T01:12:09.422Z,13.30
2022-10-18T01:15:02.303Z,14.48
2022-10-18T01:17:28.608Z,14.27
2022-10-18T01:20:16.830Z,13.27
2022-10-18T01:23:09.508Z,12.98
2022-10-18T01:25:51.138Z,14.27
2022-10-18T01:28:27.416Z,12.55
2022-10-18T01:30:59.377Z,12.65
2022-10-18T01:33:28.391Z,12.50
2022-10-18T01:36:05.781Z,12.95
2022-10-18T01:38:33.086Z,12.20
2022-10-18T01:41:00.439Z,14.45
2022-10-18T01:43:28.409Z,12.48
2022-10-18T01:45:55.711Z,12.30
2022-10-18T01:48:22.799Z,11.93
2022-10-18T01:50:49.063Z,11.75
2022-10-18T01:53:22.666Z,12.32
2022-10-18T01:55:52.843Z,12.40
2022-10-18T01:58:21.640Z,11.70
2022-10-18T02:00:51.054Z,11.05
2022-10-18T02:03:21.916Z,10.95
2022-10-18T02:06:14.549Z,11.70
2022-10-18T02:08:44.647Z,11.15
2022-10-18T02:11:12.850Z,11.18
2022-10-18T02:13:45.295Z,11.63
2022-10-18T02:16:14.354Z,11.15
2022-10-18T02:18:42.028Z,10.88
2022-10-18T02:21:10.185Z,11.52
2022-10-18T02:23:36.864Z,11.27
2022-10-18T02:26:03.613Z,10.63
2022-10-18T02:28:30.059Z,11.43
2022-10-18T02:31:15.297Z,12.02
2022-10-18T02:33:53.968Z,10.35
2022-10-18T02:36:42.280Z,9.93
2022-10-18T02:39:14.325Z,10.98
2022-10-18T02:41:40.699Z,10.40
2022-10-18T02:44:07.073Z,10.10
2022-10-18T02:46:34.264Z,9.13
2022-10-18T02:49:00.571Z,10.38
2022-10-18T02:51:27.277Z,10.43
2022-10-18T02:53:53.539Z,9.65
2022-10-18T02:56:20.076Z,10.23
2022-10-18T02:58:46.432Z,10.18
2022-10-18T03:01:12.781Z,10.10
2022-10-18T03:03:39.103Z,10.73
2022-10-18T03:06:05.504Z,9.27
2022-10-18T03:08:31.835Z,9.02
2022-10-18T03:10:58.361Z,10.13
2022-10-18T03:13:24.684Z,9.15
2022-10-18T03:15:51.260Z,9.52
2022-10-18T03:18:17.540Z,10.43
2022-10-18T03:20:43.802Z,9.70
2022-10-18T03:23:10.077Z,10.23
2022-10-18T03:25:36.346Z,8.75
2022-10-18T03:28:02.686Z,10.02
2022-10-18T03:30:29.004Z,10.52
2022-10-18T03:32:55.351Z,11.18
2022-10-18T03:35:22.277Z,11.00
2022-10-18T03:37:48.761Z,9.95
2022-10-18T03:40:15.077Z,10.45
2022-10-18T03:42:41.323Z,9.90
2022-10-18T03:45:07.760Z,9.75
2022-10-18T03:47:34.013Z,10.85
2022-10-18T03:50:00.268Z,9.93
2022-10-18T03:52:26.565Z,9.00
2022-10-18T03:54:52.809Z,9.95
2022-10-18T03:57:19.136Z,9.70
2022-10-18T03:59:45.371Z,8.77
2022-10-18T04:02:11.618Z,11.10
2022-10-18T04:04:37.879Z,10.70
2022-10-18T04:07:04.161Z,9.73
2022-10-18T04:09:30.438Z,9.98
2022-10-18T04:11:56.687Z,9.75
2022-10-18T04:14:22.992Z,10.13
2022-10-18T04:16:49.375Z,9.60
2022-10-18T04:19:15.767Z,9.40
2022-10-18T04:21:42.039Z,9.60
2022-10-18T04:24:08.393Z,9.35
2022-10-18T04:26:34.675Z,8.75
2022-10-18T04:29:01.124Z,9.30
2022-10-18T04:31:27.457Z,8.95
2022-10-18T04:33:53.823Z,8.77
2022-10-18T04:36:20.260Z,8.80
2022-10-18T04:38:46.537Z,9.15
2022-10-18T04:41:12.874Z,8.80
2022-10-18T04:43:39.151Z,8.75
2022-10-18T04:46:05.477Z,8.10
2022-10-18T04:48:31.759Z,8.40
2022-10-18T04:50:58.416Z,8.52
2022-10-18T04:53:24.696Z,9.30
2022-10-18T04:55:51.453Z,9.45
2022-10-18T04:58:17.871Z,9.32
2022-10-18T05:00:44.156Z,9.48
2022-10-18T05:03:11.264Z,10.45
2022-10-18T05:05:49.737Z,12.20
2022-10-18T05:10:49.918Z,14.27
2022-10-18T05:13:16.703Z,13.88
2022-10-18T05:15:42.972Z,14.65
2022-10-18T05:18:09.380Z,17.45
2022-10-18T05:20:35.631Z,15.15
2022-10-18T05:23:01.980Z,14.45
2022-10-18T05:25:28.557Z,15.30
2022-10-18T05:27:54.808Z,15.23
2022-10-18T05:30:21.627Z,16.42
2022-10-18T05:32:48.029Z,14.63
2022-10-18T05:35:14.440Z,13.45
2022-10-18T05:37:40.718Z,12.75
2022-10-18T05:40:07.459Z,13.27
2022-10-18T05:42:34.024Z,13.27
2022-10-18T05:45:00.412Z,16.17
2022-10-18T05:47:26.661Z,14.65
2022-10-18T05:49:52.931Z,15.35
2022-10-18T05:52:19.286Z,17.98
2022-10-18T05:54:45.582Z,17.55
2022-10-18T05:57:11.921Z,18.35
2022-10-18T05:59:38.239Z,16.30
2022-10-18T06:02:04.617Z,17.05
2022-10-18T06:04:30.882Z,19.58
2022-10-18T06:06:58.478Z,18.50
2022-10-18T06:09:24.805Z,15.48
2022-10-18T06:11:51.313Z,17.17
2022-10-18T06:14:17.570Z,17.55
2022-10-18T06:16:43.808Z,13.63
2022-10-18T06:19:10.120Z,14.77
2022-10-18T06:21:36.379Z,11.23
2022-10-18T06:24:02.679Z,12.45
2022-10-18T06:26:29.040Z,12.85
2022-10-18T06:28:55.593Z,11.05
2022-10-18T06:31:21.918Z,11.43
2022-10-18T06:33:48.359Z,11.13
2022-10-18T06:36:16.591Z,9.93
2022-10-18T06:38:42.933Z,11.18
2022-10-18T06:41:09.800Z,10.52
2022-10-18T06:43:36.402Z,12.15
2022-10-18T06:46:04.962Z,9.80
2022-10-18T06:48:31.751Z,10.98
2022-10-18T06:50:59.086Z,9.70
2022-10-18T06:53:26.534Z,9.23
2022-10-18T06:55:53.123Z,8.50
2022-10-18T06:58:19.444Z,8.95
2022-10-18T07:00:46.885Z,8.30
2022-10-18T07:03:13.246Z,7.93
2022-10-18T07:05:39.601Z,8.93
2022-10-18T07:08:05.852Z,8.88
2022-10-18T07:10:32.135Z,8.88
2022-10-18T07:13:13.659Z,9.02
2022-10-18T07:15:44.922Z,7.30
2022-10-18T07:18:11.298Z,9.05
2022-10-18T07:20:37.612Z,10.20
2022-10-18T07:23:05.534Z,10.10
2022-10-18T07:25:31.807Z,9.68
2022-10-18T07:27:58.538Z,10.90
2022-10-18T07:30:24.784Z,12.35
2022-10-18T07:32:51.810Z,12.07
2022-10-18T07:35:18.177Z,13.07
2022-10-18T07:37:44.446Z,11.13
2022-10-18T07:40:11.916Z,12.10
2022-10-18T07:42:38.212Z,11.40
2022-10-18T07:45:04.691Z,11.90
2022-10-18T07:47:32.847Z,11.90
2022-10-18T07:50:01.450Z,10.85
2022-10-18T07:52:27.818Z,10.18
2022-10-18T07:54:54.125Z,10.40
2022-10-18T07:57:20.463Z,9.68
2022-10-18T07:59:48.111Z,11.65
2022-10-18T08:02:14.416Z,10.85
2022-10-18T08:04:41.584Z,10.65
2022-10-18T08:07:07.947Z,10.18
2022-10-18T08:09:34.209Z,10.30
2022-10-18T08:12:00.487Z,10.30
2022-10-18T08:14:26.819Z,10.32
2022-10-18T08:16:53.362Z,8.75
2022-10-18T08:19:19.675Z,8.93
2022-10-18T08:21:45.957Z,8.48
2022-10-18T08:24:12.454Z,8.20
2022-10-18T08:26:38.843Z,8.27
2022-10-18T08:29:22.978Z,8.13
2022-10-18T08:31:51.366Z,7.43
2022-10-18T08:34:19.820Z,7.07
2022-10-18T08:36:51.338Z,7.68
2022-10-18T08:39:17.578Z,8.18
2022-10-18T08:41:55.978Z,7.65
2022-10-18T08:44:30.314Z,6.93
2022-10-18T08:47:05.068Z,6.32
2022-10-18T08:49:35.992Z,6.93
2022-10-18T08:52:02.987Z,5.45
2022-10-18T08:54:39.517Z,5.03
2022-10-18T08:57:12.457Z,6.22
2022-10-18T08:59:39.679Z,5.40
2022-10-18T09:02:24.258Z,5.82
2022-10-18T09:04:50.526Z,5.50
2022-10-18T09:07:23.001Z,5.70
2022-10-18T09:10:15.348Z,4.43
2022-10-18T09:12:53.296Z,2.60
2022-10-18T09:15:38.422Z,3.38
2022-10-18T09:18:07.752Z,3.88
2022-10-18T09:20:50.318Z,3.20
2022-10-18T09:23:20.374Z,3.17
2022-10-18T09:25:48.004Z,4.32
2022-10-18T09:28:17.327Z,3.22
2022-10-18T09:30:43.614Z,4.57
2022-10-18T09:33:19.822Z,3.80
2022-10-18T09:35:52.294Z,3.35
2022-10-18T09:38:21.576Z,4.00
2022-10-18T09:40:53.270Z,2.88
2022-10-18T09:43:22.861Z,2.45
2022-10-18T09:45:50.526Z,3.28
2022-10-18T09:48:19.825Z,2.97
2022-10-18T09:50:58.852Z,2.40
2022-10-18T09:53:25.101Z,1.90
2022-10-18T09:55:56.833Z,1.80
2022-10-18T09:58:24.178Z,1.95
2022-10-18T10:00:52.639Z,1.88
2022-10-18T10:03:19.214Z,1.48
2022-10-18T10:05:45.552Z,1.20
2022-10-18T10:08:12.244Z,1.40
2022-10-18T10:10:40.297Z,1.38
2022-10-18T10:13:15.976Z,1.00
2022-10-18T10:16:01.466Z,1.02
2022-10-18T10:18:31.055Z,1.15
2022-10-18T10:21:00.167Z,1.23
2022-10-18T10:23:28.685Z,1.85
2022-10-18T10:25:56.623Z,1.70
2022-10-18T10:28:23.875Z,1.25
2022-10-18T10:30:50.522Z,0.70
2022-10-18T10:33:36.948Z,1.50
2022-10-18T10:36:15.584Z,0.70
2022-10-18T10:38:41.870Z,0.90
2022-10-18T10:41:18.278Z,1.30
2022-10-18T10:43:45.604Z,1.20
2022-10-18T10:46:13.070Z,1.27
2022-10-18T10:48:41.785Z,1.15
2022-10-18T10:51:10.322Z,1.15
2022-10-18T10:53:45.757Z,1.15
2022-10-18T10:58:42.093Z,0.95
2022-10-18T11:01:20.528Z,1.40
2022-10-18T11:03:48.234Z,1.13
2022-10-18T11:06:33.444Z,1.05
2022-10-18T11:09:01.958Z,1.48
2022-10-18T11:11:32.040Z,1.05
2022-10-18T11:14:32.455Z,1.67
2022-10-18T11:16:49.799Z,0.85
2022-10-18T11:19:32.474Z,0.80
2022-10-18T11:21:59.628Z,1.30
2022-10-18T11:24:25.984Z,1.30
2022-10-18T11:27:12.477Z,1.52
2022-10-18T11:29:51.256Z,1.90
2022-10-18T11:32:40.687Z,1.08
2022-10-18T11:35:26.645Z,1.45
2022-10-18T11:38:22.266Z,1.92
2022-10-18T11:41:07.466Z,1.15
2022-10-18T11:43:57.063Z,1.00
2022-10-18T11:46:27.864Z,1.00
2022-10-18T11:49:05.689Z,1.02
2022-10-18T11:51:34.325Z,1.15
2022-10-18T11:54:25.268Z,0.88
2022-10-18T11:57:14.538Z,1.23
2022-10-18T11:59:51.565Z,1.50
2022-10-18T12:02:36.642Z,1.48
2022-10-18T12:05:22.671Z,1.50
2022-10-18T12:08:02.603Z,0.90
2022-10-18T12:10:52.753Z,0.95
2022-10-18T12:13:22.969Z,1.52
2022-10-18T12:15:50.620Z,0.88
2022-10-18T12:18:19.032Z,0.98
2022-10-18T12:20:49.316Z,1.27
2022-10-18T12:23:21.822Z,2.35
2022-10-18T12:26:00.946Z,1.20
2022-10-18T12:28:33.141Z,0.93
2022-10-18T12:31:14.585Z,1.05
2022-10-18T12:33:42.724Z,0.77
2022-10-18T12:36:15.205Z,1.50
2022-10-18T12:38:43.682Z,1.27
2022-10-18T12:41:19.237Z,1.00
2022-10-18T12:43:50.839Z,1.50
2022-10-18T12:46:17.102Z,0.73
2022-10-18T12:48:45.707Z,1.42
2022-10-18T12:51:16.476Z,1.42
2022-10-18T12:53:45.072Z,0.80
2022-10-18T12:56:25.200Z,1.02
2022-10-18T12:58:51.791Z,0.90
2022-10-18T13:01:18.163Z,1.55
2022-10-18T13:03:52.864Z,1.25
2022-10-18T13:06:19.151Z,1.15
2022-10-18T13:08:46.051Z,1.02
2022-10-18T13:11:12.327Z,1.40
2022-10-18T13:13:57.000Z,1.52
2022-10-18T13:16:23.301Z,1.20
2022-10-18T13:18:49.582Z,1.50
2022-10-18T13:21:21.998Z,1.40
2022-10-18T13:24:02.465Z,1.25
2022-10-18T13:26:58.129Z,1.15
2022-10-18T13:29:35.469Z,1.08
2022-10-18T13:32:01.736Z,1.08
2022-10-18T13:34:30.974Z,0.65
2022-10-18T13:37:03.612Z,0.90
2022-10-18T13:39:30.276Z,0.55
2022-10-18T13:41:57.824Z,0.47
2022-10-18T13:44:24.374Z,0.63
2022-10-18T13:46:51.576Z,1.17
2022-10-18T13:49:38.095Z,1.05
2022-10-18T13:52:07.468Z,0.70
2022-10-18T13:54:52.610Z,0.68
2022-10-18T13:57:37.921Z,1.00
2022-10-18T14:00:15.636Z,1.00
2022-10-18T14:02:51.493Z,0.70
2022-10-18T14:05:29.061Z,1.48
2022-10-18T14:08:01.438Z,1.10
2022-10-18T14:11:00.928Z,1.80
2022-10-18T14:13:36.498Z,1.45
2022-10-18T14:16:10.294Z,2.33
2022-10-18T14:18:37.773Z,1.23
2022-10-18T14:21:13.725Z,1.30
2022-10-18T14:23:44.428Z,1.13
2022-10-18T14:26:15.310Z,1.65
2022-10-18T14:28:59.208Z,1.48
2022-10-18T14:31:26.716Z,1.83
2022-10-18T14:33:57.576Z,0.82
2022-10-18T14:36:26.678Z,1.20
2022-10-18T14:39:00.313Z,1.63
2022-10-18T14:41:33.452Z,1.60
2022-10-18T14:44:14.776Z,1.48
2022-10-18T14:46:51.515Z,1.27
2022-10-18T14:49:19.703Z,2.05
2022-10-18T14:51:48.546Z,1.20
2022-10-18T14:54:16.309Z,1.20
2022-10-18T14:56:43.029Z,1.10
2022-10-18T14:59:26.743Z,1.38
2022-10-18T15:02:05.136Z,1.00
2022-10-18T15:04:34.639Z,1.15
2022-10-18T15:07:05.459Z,1.00
2022-10-18T15:09:32.811Z,1.13
2022-10-18T15:12:00.621Z,1.33
2022-10-18T15:14:27.847Z,1.50
2022-10-18T15:16:58.372Z,1.50
2022-10-18T15:19:27.738Z,1.10
2022-10-18T15:25:26.751Z,1.90
2022-10-18T15:27:56.736Z,0.80
2022-10-18T15:30:36.531Z,1.15
2022-10-18T15:33:04.216Z,1.10
2022-10-18T15:35:32.068Z,1.30
2022-10-18T15:38:12.625Z,1.52
2022-10-18T15:40:39.474Z,1.42
2022-10-18T15:43:25.872Z,1.30
2022-10-18T15:45:52.243Z,1.20
2022-10-18T15:48:22.034Z,5.10
2022-10-18T15:50:50.560Z,2.20
2022-10-18T15:53:23.011Z,2.00
2022-10-18T15:56:00.685Z,1.27
2022-10-18T15:58:28.035Z,1.40
2022-10-18T16:00:57.941Z,1.75
2022-10-18T16:03:24.852Z,1.60
2022-10-18T16:05:53.063Z,1.48
2022-10-18T16:08:21.139Z,2.28
2022-10-18T16:10:47.460Z,2.75
2022-10-18T16:13:13.760Z,1.90
2022-10-18T16:15:40.042Z,1.70
2022-10-18T16:18:06.690Z,1.90
2022-10-18T16:20:33.122Z,1.42
2022-10-18T16:22:59.423Z,1.70
2022-10-18T16:25:25.767Z,2.05
2022-10-18T16:27:52.013Z,1.60
2022-10-18T16:30:19.848Z,1.88
2022-10-18T16:32:46.591Z,2.38
2022-10-18T16:35:13.404Z,1.77
2022-10-18T16:37:39.963Z,1.70
2022-10-18T16:40:25.251Z,1.90
2022-10-18T16:42:51.595Z,2.40
2022-10-18T16:45:18.142Z,1.90
2022-10-18T16:47:45.079Z,2.03
2022-10-18T16:50:16.045Z,2.10
2022-10-18T16:52:42.493Z,2.10
2022-10-18T16:55:16.081Z,2.40
2022-10-18T16:57:43.208Z,2.22
2022-10-18T17:00:15.834Z,1.48
2022-10-18T17:02:42.089Z,1.75
2022-10-18T17:05:08.493Z,2.63
2022-10-18T17:07:34.883Z,2.53
2022-10-18T17:10:01.198Z,2.47
2022-10-18T17:12:27.863Z,2.22
2022-10-18T17:14:54.128Z,2.35
2022-10-18T17:17:21.057Z,3.20
2022-10-18T17:19:47.274Z,2.80
2022-10-18T17:22:13.672Z,2.90
2022-10-18T17:24:40.000Z,2.47
2022-10-18T17:27:06.348Z,2.30
2022-10-18T17:29:32.637Z,2.45
2022-10-18T17:31:59.035Z,2.65
2022-10-18T17:34:25.307Z,2.33
2022-10-18T17:36:51.566Z,3.00
2022-10-18T17:39:17.972Z,2.38
2022-10-18T17:41:44.298Z,2.13
2022-10-18T17:44:10.567Z,2.45
2022-10-18T17:46:36.863Z,2.63
2022-10-18T17:49:03.216Z,2.75
2022-10-18T17:51:29.547Z,5.32
2022-10-18T17:53:55.982Z,2.80
2022-10-18T17:56:22.306Z,2.63
2022-10-18T17:58:51.966Z,2.67
2022-10-18T18:01:19.872Z,2.83
2022-10-18T18:03:49.804Z,3.45
2022-10-18T18:06:20.810Z,3.22
2022-10-18T18:08:47.692Z,3.22
2022-10-18T18:11:14.324Z,2.90
2022-10-18T18:13:40.687Z,2.97
2022-10-18T18:16:13.162Z,3.60
2022-10-18T18:18:39.446Z,3.65
2022-10-18T18:21:05.922Z,3.95
2022-10-18T18:23:32.239Z,3.75
2022-10-18T18:25:58.690Z,4.85
2022-10-18T18:28:25.055Z,4.30
2022-10-18T18:30:51.415Z,5.13
2022-10-18T18:33:17.731Z,4.55
2022-10-18T18:35:44.018Z,4.40
2022-10-18T18:38:10.265Z,4.40
2022-10-18T18:40:36.586Z,5.50
2022-10-18T18:43:12.506Z,5.40
2022-10-18T18:45:52.329Z,5.18
2022-10-18T18:48:19.915Z,4.90
2022-10-18T18:50:50.838Z,5.68
2022-10-18T18:53:17.209Z,5.47
2022-10-18T18:55:43.652Z,6.78
2022-10-18T18:58:10.686Z,6.15
2022-10-18T19:00:41.774Z,5.88
2022-10-18T19:03:10.916Z,5.50
2022-10-18T19:05:37.355Z,6.28
2022-10-18T19:08:04.438Z,5.63
2022-10-18T19:10:30.782Z,5.85
2022-10-18T19:12:57.582Z,5.65
2022-10-18T19:15:23.847Z,5.80
2022-10-18T19:17:50.667Z,6.78
2022-10-18T19:20:17.692Z,6.85
2022-10-18T19:22:45.266Z,5.80
2022-10-18T19:25:11.501Z,6.75
2022-10-18T19:27:39.216Z,7.15
2022-10-18T19:30:07.700Z,7.00
2022-10-18T19:32:34.026Z,8.10
2022-10-18T19:35:00.332Z,8.70
2022-10-18T19:37:26.965Z,7.75
2022-10-18T19:39:53.303Z,7.50
2022-10-18T19:42:26.069Z,7.25
2022-10-18T19:44:53.783Z,7.35
2022-10-18T19:47:20.787Z,6.80
2022-10-18T19:49:47.928Z,6.88
2022-10-18T19:52:14.259Z,6.82
2022-10-18T19:54:40.673Z,7.18
2022-10-18T19:57:06.972Z,6.97
2022-10-18T19:59:34.175Z,7.03
2022-10-18T20:02:01.611Z,6.53
2022-10-18T20:04:28.066Z,6.38
2022-10-18T20:06:54.318Z,6.85
2022-10-18T20:09:22.662Z,6.35
2022-10-18T20:11:48.904Z,6.82
2022-10-18T20:14:15.141Z,8.05
2022-10-18T20:16:41.415Z,6.65
2022-10-18T20:19:08.124Z,5.57
2022-10-18T20:21:35.600Z,6.65
2022-10-18T20:24:03.159Z,7.05
2022-10-18T20:26:29.538Z,6.65
2022-10-18T20:28:58.192Z,7.45
2022-10-18T20:31:29.204Z,6.53
2022-10-18T20:33:57.006Z,6.65
2022-10-18T20:36:23.895Z,6.63
2022-10-18T20:38:50.188Z,6.70
2022-10-18T20:41:17.947Z,7.60
2022-10-18T20:43:44.311Z,7.30
2022-10-18T20:46:10.667Z,6.95
2022-10-18T20:48:38.499Z,7.68
2022-10-18T20:51:09.118Z,7.10
2022-10-18T20:53:35.852Z,6.25
2022-10-18T20:56:03.518Z,6.70
2022-10-18T20:58:29.840Z,9.00
2022-10-18T21:00:56.103Z,8.32
2022-10-18T21:03:22.406Z,8.07
2022-10-18T21:05:48.717Z,7.00
2022-10-18T21:08:15.157Z,6.40
2022-10-18T21:10:41.406Z,6.55
2022-10-18T21:13:07.661Z,7.10
2022-10-18T21:15:34.011Z,7.47
2022-10-18T21:18:00.264Z,6.15
2022-10-18T21:20:27.246Z,7.38
2022-10-18T21:22:54.002Z,7.60
2022-10-18T21:25:20.280Z,7.18
2022-10-18T21:27:46.580Z,6.70
2022-10-18T21:32:44.364Z,7.35
2022-10-18T21:35:10.889Z,7.97
2022-10-18T21:37:37.199Z,8.57
2022-10-18T21:40:03.665Z,7.95
2022-10-18T21:42:30.238Z,8.05
2022-10-18T21:44:56.945Z,7.68
2022-10-18T21:47:23.190Z,6.70
2022-10-18T21:49:49.616Z,7.88
2022-10-18T21:52:16.615Z,7.38
2022-10-18T21:54:42.872Z,7.75
2022-10-18T21:57:09.175Z,7.45
2022-10-18T21:59:35.430Z,7.18
2022-10-18T22:02:02.946Z,6.53
2022-10-18T22:04:35.513Z,6.47
2022-10-18T22:07:03.952Z,6.50
2022-10-18T22:09:30.334Z,6.68
2022-10-18T22:11:57.024Z,6.65
2022-10-18T22:14:23.453Z,6.95
2022-10-18T22:16:50.072Z,6.97
2022-10-18T22:19:16.549Z,7.10
2022-10-18T22:21:42.795Z,6.93
2022-10-18T22:24:09.785Z,7.72
2022-10-18T22:26:37.260Z,7.53
2022-10-18T22:29:14.515Z,7.45
2022-10-18T22:31:42.838Z,7.32
2022-10-18T22:34:11.372Z,7.20
2022-10-18T22:36:37.807Z,7.65
2022-10-18T22:39:05.417Z,7.95
2022-10-18T22:41:32.012Z,7.53
2022-10-18T22:43:59.830Z,7.95
2022-10-18T22:46:29.239Z,7.03
2022-10-18T22:48:55.620Z,6.78
2022-10-18T22:51:22.035Z,6.88
2022-10-18T22:53:48.483Z,6.80
2022-10-18T22:56:19.022Z,7.15
2022-10-18T22:58:45.422Z,7.30
2022-10-18T23:01:13.136Z,7.03
2022-10-18T23:03:39.419Z,7.28
2022-10-18T23:06:06.330Z,7.05
2022-10-18T23:08:33.301Z,6.80
2022-10-18T23:10:59.928Z,6.72
2022-10-18T23:13:27.103Z,6.30
2022-10-18T23:15:53.500Z,5.90
2022-10-18T23:18:19.984Z,7.50
2022-10-18T23:20:46.223Z,6.47
2022-10-18T23:23:13.038Z,5.82
2022-10-18T23:25:39.332Z,6.53
2022-10-18T23:28:05.996Z,6.07
2022-10-18T23:30:32.341Z,6.18
2022-10-18T23:32:59.093Z,6.38
2022-10-18T23:35:25.388Z,6.13
2022-10-18T23:37:51.724Z,5.85
2022-10-18T23:40:18.049Z,5.80
2022-10-18T23:42:44.289Z,6.18
2022-10-18T23:45:10.636Z,5.85
2022-10-18T23:47:36.963Z,6.88
2022-10-18T23:50:03.362Z,6.53
2022-10-18T23:52:29.665Z,7.60
2022-10-18T23:54:55.924Z,5.70
2022-10-18T23:57:22.178Z,6.70
2022-10-18T23:59:48.508Z,5.97
